Terminal Aerodrome Forecast
Issued by NWS

Home | Current Version | Previous Version | Text Only | Print | Product List | Glossary On
Versions: 1 2 3 4 5 6 7 8 9 10 11 12 13 14 15 16 17 18 19 20 21 22 23 24 25 26 27 28 29 30 31
000
FTUS42 KFFC 231500 AAB
TAFPDK
TAF AMD
KPDK 231532Z 2316/2412 07003KT P6SM VCSH FEW025 SCT060 BKN090
     FM231700 27005KT P6SM VCSH SCT035 BKN050
     FM240000 00000KT P6SM SCT040 SCT080
     FM240900 00000KT P6SM SCT020=

USA.gov is the U.S. government's official web portal to all federal, state and local government web resources and services.